CheckWX is a tool to help pilots better visualize weather data.  It is not intended as a substitute for an official pre-flight weather briefing.

08:16:24 UTC

KNJM METAR
Bogue Field McAlf Airport
Swansboro, North Carolina, USA
Current

19 mins ago

KNJM 220757Z AUTO 03006KT 8SM SCT008 OVC023 16/14 A3015 RMK AO2 SLP214 T01610144 PNO $
Observed
Feb-22 @ 07:57 UTC
Wind
  • 030° at 6 KTS
Visibility
8 SM
Flight Rules
MVFR
Cloud Levels
  • Scattered at 800' AGL
  • Overcast at 2,300' AGL
Temperature
16°C / 61°F
Dewpoint
14°C / 57°F
Humidity
88%
Altimeter
30.15" Hg
Pressure
1021.4 hPa
Previous

1 hour ago

KNJM 220657Z AUTO 07003KT 6SM BR OVC025 16/15 A3016 RMK AO2 SLP217 T01560150 PNO $
Observed
Feb-22 @ 06:57 UTC
Wind
  • 070° at 3 KTS
Visibility
6 SM
Flight Rules
MVFR
Conditions
Mist
Cloud Levels
  • Overcast at 2,500' AGL
Temperature
16°C / 61°F
Dewpoint
15°C / 59°F
Humidity
94%
Altimeter
30.16" Hg
Pressure
1021.7 hPa
Previous

2 hours ago

KNJM 220557Z AUTO 08003KT 6SM BR BKN029 OVC035 16/15 A3016 RMK AO2 SLP216 6//// T01610150 10167 20139 58001 PNO $
Observed
Feb-22 @ 05:57 UTC
Wind
  • 080° at 3 KTS
Visibility
6 SM
Flight Rules
MVFR
Conditions
Mist
Cloud Levels
  • Broken at 2,900' AGL
  • Overcast at 3,500' AGL
Temperature
16°C / 61°F
Dewpoint
15°C / 59°F
Humidity
94%
Altimeter
30.16" Hg
Pressure
1021.6 hPa